sensor_id;sensor_type;location;lat;lon;timestamp;P1;durP1;ratioP1;P2;durP2;ratioP2
22378;SDS011;11357;49.990;7.370;2023-08-30T00:00:58;79.63;;;25.63;;
22378;SDS011;11357;49.990;7.370;2023-08-30T00:03:24;64.50;;;20.97;;
22378;SDS011;11357;49.990;7.370;2023-08-30T00:05:50;25.90;;;20.80;;
22378;SDS011;11357;49.990;7.370;2023-08-30T00:08:15;46.20;;;20.97;;
22378;SDS011;11357;49.990;7.370;2023-08-30T00:10:48;62.07;;;22.20;;
22378;SDS011;11357;49.990;7.370;2023-08-30T00:13:14;32.53;;;22.43;;
22378;SDS011;11357;49.990;7.370;2023-08-30T00:15:39;34.20;;;22.47;;
22378;SDS011;11357;49.990;7.370;2023-08-30T00:18:05;69.03;;;23.87;;
22378;SDS011;11357;49.990;7.370;2023-08-30T00:20:31;76.80;;;31.50;;
22378;SDS011;11357;49.990;7.370;2023-08-30T00:22:57;71.70;;;26.30;;
22378;SDS011;11357;49.990;7.370;2023-08-30T00:25:22;69.43;;;24.43;;
22378;SDS011;11357;49.990;7.370;2023-08-30T00:27:48;34.90;;;23.33;;
22378;SDS011;11357;49.990;7.370;2023-08-30T00:30:14;61.73;;;26.13;;
22378;SDS011;11357;49.990;7.370;2023-08-30T00:32:40;62.70;;;27.70;;
22378;SDS011;11357;49.990;7.370;2023-08-30T00:35:06;80.60;;;30.37;;
22378;SDS011;11357;49.990;7.370;2023-08-30T00:37:32;59.70;;;24.93;;
22378;SDS011;11357;49.990;7.370;2023-08-30T00:39:57;49.70;;;19.90;;
22378;SDS011;11357;49.990;7.370;2023-08-30T00:42:24;43.73;;;22.20;;
22378;SDS011;11357;49.990;7.370;2023-08-30T00:44:50;60.97;;;22.03;;
22378;SDS011;11357;49.990;7.370;2023-08-30T00:47:16;47.10;;;19.87;;
22378;SDS011;11357;49.990;7.370;2023-08-30T00:49:42;57.53;;;23.57;;
22378;SDS011;11357;49.990;7.370;2023-08-30T00:52:08;42.97;;;20.53;;
22378;SDS011;11357;49.990;7.370;2023-08-30T00:54:35;37.53;;;20.23;;
22378;SDS011;11357;49.990;7.370;2023-08-30T00:57:02;43.30;;;19.33;;
22378;SDS011;11357;49.990;7.370;2023-08-30T00:59:29;74.40;;;22.07;;
22378;SDS011;11357;49.990;7.370;2023-08-30T01:01:58;77.17;;;21.43;;
22378;SDS011;11357;49.990;7.370;2023-08-30T01:04:26;81.83;;;23.10;;
22378;SDS011;11357;49.990;7.370;2023-08-30T01:06:52;68.87;;;22.00;;
22378;SDS011;11357;49.990;7.370;2023-08-30T01:09:19;91.07;;;22.07;;
22378;SDS011;11357;49.990;7.370;2023-08-30T01:11:54;32.97;;;18.23;;
22378;SDS011;11357;49.990;7.370;2023-08-30T01:14:37;103.67;;;24.77;;
22378;SDS011;11357;49.990;7.370;2023-08-30T01:17:07;57.77;;;22.27;;
22378;SDS011;11357;49.990;7.370;2023-08-30T01:19:46;47.97;;;23.03;;
22378;SDS011;11357;49.990;7.370;2023-08-30T01:28:04;47.17;;;21.17;;
22378;SDS011;11357;49.990;7.370;2023-08-30T01:30:34;23.67;;;18.63;;
22378;SDS011;11357;49.990;7.370;2023-08-30T01:33:02;29.60;;;19.43;;
22378;SDS011;11357;49.990;7.370;2023-08-30T01:35:30;27.17;;;20.07;;
22378;SDS011;11357;49.990;7.370;2023-08-30T01:38:01;50.93;;;19.30;;
22378;SDS011;11357;49.990;7.370;2023-08-30T01:40:35;75.43;;;25.87;;
22378;SDS011;11357;49.990;7.370;2023-08-30T01:43:03;39.93;;;22.20;;
22378;SDS011;11357;49.990;7.370;2023-08-30T01:45:35;39.60;;;24.40;;
22378;SDS011;11357;49.990;7.370;2023-08-30T01:48:03;44.00;;;23.63;;
22378;SDS011;11357;49.990;7.370;2023-08-30T01:50:31;57.80;;;21.53;;
22378;SDS011;11357;49.990;7.370;2023-08-30T01:52:58;54.03;;;20.93;;
22378;SDS011;11357;49.990;7.370;2023-08-30T01:55:25;47.73;;;21.67;;
22378;SDS011;11357;49.990;7.370;2023-08-30T01:57:53;34.43;;;23.57;;
22378;SDS011;11357;49.990;7.370;2023-08-30T02:00:18;44.93;;;22.73;;
22378;SDS011;11357;49.990;7.370;2023-08-30T02:02:45;64.57;;;25.60;;
22378;SDS011;11357;49.990;7.370;2023-08-30T02:05:11;59.10;;;24.70;;
22378;SDS011;11357;49.990;7.370;2023-08-30T02:10:28;82.57;;;27.13;;
22378;SDS011;11357;49.990;7.370;2023-08-30T02:12:59;84.80;;;27.27;;
22378;SDS011;11357;49.990;7.370;2023-08-30T02:15:26;32.90;;;25.10;;
22378;SDS011;11357;49.990;7.370;2023-08-30T02:17:55;91.50;;;26.70;;
22378;SDS011;11357;49.990;7.370;2023-08-30T02:20:21;99.90;;;28.10;;
22378;SDS011;11357;49.990;7.370;2023-08-30T02:22:48;79.50;;;25.20;;
22378;SDS011;11357;49.990;7.370;2023-08-30T02:25:13;70.53;;;26.17;;
22378;SDS011;11357;49.990;7.370;2023-08-30T02:27:39;84.07;;;32.90;;
22378;SDS011;11357;49.990;7.370;2023-08-30T02:30:05;88.70;;;31.73;;
22378;SDS011;11357;49.990;7.370;2023-08-30T02:32:32;79.47;;;30.20;;
22378;SDS011;11357;49.990;7.370;2023-08-30T02:34:57;49.63;;;23.07;;
22378;SDS011;11357;49.990;7.370;2023-08-30T02:37:23;63.70;;;26.33;;
22378;SDS011;11357;49.990;7.370;2023-08-30T02:39:49;84.27;;;33.20;;
22378;SDS011;11357;49.990;7.370;2023-08-30T02:42:15;62.33;;;28.00;;
22378;SDS011;11357;49.990;7.370;2023-08-30T02:44:41;59.40;;;28.30;;
22378;SDS011;11357;49.990;7.370;2023-08-30T02:47:07;38.20;;;23.33;;
22378;SDS011;11357;49.990;7.370;2023-08-30T02:49:33;31.27;;;22.00;;
22378;SDS011;11357;49.990;7.370;2023-08-30T02:51:59;90.27;;;29.00;;
22378;SDS011;11357;49.990;7.370;2023-08-30T02:54:24;58.73;;;26.03;;
22378;SDS011;11357;49.990;7.370;2023-08-30T02:56:50;60.77;;;24.17;;
22378;SDS011;11357;49.990;7.370;2023-08-30T02:59:16;88.53;;;28.07;;
22378;SDS011;11357;49.990;7.370;2023-08-30T03:01:41;116.07;;;33.40;;
22378;SDS011;11357;49.990;7.370;2023-08-30T03:04:08;87.57;;;27.17;;
22378;SDS011;11357;49.990;7.370;2023-08-30T03:06:34;101.90;;;33.40;;
22378;SDS011;11357;49.990;7.370;2023-08-30T03:09:00;96.17;;;33.60;;
22378;SDS011;11357;49.990;7.370;2023-08-30T03:11:28;76.23;;;29.97;;
22378;SDS011;11357;49.990;7.370;2023-08-30T03:13:54;63.00;;;26.23;;
22378;SDS011;11357;49.990;7.370;2023-08-30T03:16:19;71.77;;;28.47;;
22378;SDS011;11357;49.990;7.370;2023-08-30T03:18:46;67.20;;;31.03;;
22378;SDS011;11357;49.990;7.370;2023-08-30T03:21:12;69.27;;;30.97;;
22378;SDS011;11357;49.990;7.370;2023-08-30T03:23:39;71.77;;;30.47;;
22378;SDS011;11357;49.990;7.370;2023-08-30T03:26:09;45.23;;;26.40;;
22378;SDS011;11357;49.990;7.370;2023-08-30T03:28:37;65.87;;;27.90;;
22378;SDS011;11357;49.990;7.370;2023-08-30T03:31:19;53.00;;;26.03;;
22378;SDS011;11357;49.990;7.370;2023-08-30T03:33:46;474.97;;;44.77;;
22378;SDS011;11357;49.990;7.370;2023-08-30T03:36:13;44.93;;;25.77;;
22378;SDS011;11357;49.990;7.370;2023-08-30T03:38:41;440.30;;;43.60;;
22378;SDS011;11357;49.990;7.370;2023-08-30T03:41:07;404.37;;;41.67;;
22378;SDS011;11357;49.990;7.370;2023-08-30T03:43:34;73.27;;;28.07;;
22378;SDS011;11357;49.990;7.370;2023-08-30T03:46:00;73.40;;;30.10;;
22378;SDS011;11357;49.990;7.370;2023-08-30T03:48:26;58.00;;;26.70;;
22378;SDS011;11357;49.990;7.370;2023-08-30T03:50:52;32.07;;;23.90;;
22378;SDS011;11357;49.990;7.370;2023-08-30T03:53:20;37.30;;;22.13;;
22378;SDS011;11357;49.990;7.370;2023-08-30T03:55:45;85.87;;;27.37;;
22378;SDS011;11357;49.990;7.370;2023-08-30T03:58:11;345.80;;;39.03;;
22378;SDS011;11357;49.990;7.370;2023-08-30T04:00:37;328.27;;;37.47;;
22378;SDS011;11357;49.990;7.370;2023-08-30T04:03:04;185.07;;;28.67;;
22378;SDS011;11357;49.990;7.370;2023-08-30T04:05:34;177.17;;;32.10;;
22378;SDS011;11357;49.990;7.370;2023-08-30T04:08:01;41.33;;;24.27;;
22378;SDS011;11357;49.990;7.370;2023-08-30T04:10:28;59.43;;;24.73;;
22378;SDS011;11357;49.990;7.370;2023-08-30T04:12:53;36.97;;;22.07;;
22378;SDS011;11357;49.990;7.370;2023-08-30T04:15:19;33.93;;;22.23;;
22378;SDS011;11357;49.990;7.370;2023-08-30T04:17:45;56.40;;;23.73;;
22378;SDS011;11357;49.990;7.370;2023-08-30T04:20:11;61.27;;;22.13;;
22378;SDS011;11357;49.990;7.370;2023-08-30T04:22:37;42.13;;;20.73;;
22378;SDS011;11357;49.990;7.370;2023-08-30T04:27:34;31.33;;;20.23;;
22378;SDS011;11357;49.990;7.370;2023-08-30T04:30:00;35.43;;;20.57;;
22378;SDS011;11357;49.990;7.370;2023-08-30T04:32:27;23.97;;;19.00;;
22378;SDS011;11357;49.990;7.370;2023-08-30T04:34:52;51.17;;;24.40;;
22378;SDS011;11357;49.990;7.370;2023-08-30T04:37:18;51.80;;;22.67;;
22378;SDS011;11357;49.990;7.370;2023-08-30T04:39:47;39.77;;;25.93;;
22378;SDS011;11357;49.990;7.370;2023-08-30T04:42:13;41.13;;;23.67;;
22378;SDS011;11357;49.990;7.370;2023-08-30T04:44:39;37.27;;;19.43;;
22378;SDS011;11357;49.990;7.370;2023-08-30T04:47:05;49.10;;;22.57;;
22378;SDS011;11357;49.990;7.370;2023-08-30T04:49:31;33.93;;;20.57;;
22378;SDS011;11357;49.990;7.370;2023-08-30T04:51:56;57.60;;;22.20;;
22378;SDS011;11357;49.990;7.370;2023-08-30T04:54:22;39.67;;;23.97;;
22378;SDS011;11357;49.990;7.370;2023-08-30T04:56:48;39.30;;;20.70;;
22378;SDS011;11357;49.990;7.370;2023-08-30T04:59:14;66.30;;;24.27;;
22378;SDS011;11357;49.990;7.370;2023-08-30T05:01:40;62.83;;;25.90;;
22378;SDS011;11357;49.990;7.370;2023-08-30T05:04:09;106.20;;;30.90;;
22378;SDS011;11357;49.990;7.370;2023-08-30T05:06:35;99.83;;;25.30;;
22378;SDS011;11357;49.990;7.370;2023-08-30T05:09:00;85.83;;;25.47;;
22378;SDS011;11357;49.990;7.370;2023-08-30T05:11:27;81.17;;;24.43;;
22378;SDS011;11357;49.990;7.370;2023-08-30T05:13:53;64.37;;;21.17;;
22378;SDS011;11357;49.990;7.370;2023-08-30T05:16:19;66.07;;;25.33;;
22378;SDS011;11357;49.990;7.370;2023-08-30T05:18:45;86.17;;;28.67;;
22378;SDS011;11357;49.990;7.370;2023-08-30T05:21:13;49.90;;;23.03;;
22378;SDS011;11357;49.990;7.370;2023-08-30T05:23:39;79.87;;;29.53;;
22378;SDS011;11357;49.990;7.370;2023-08-30T05:26:07;71.87;;;28.90;;
22378;SDS011;11357;49.990;7.370;2023-08-30T05:28:34;63.03;;;23.77;;
22378;SDS011;11357;49.990;7.370;2023-08-30T05:30:59;33.50;;;20.17;;
22378;SDS011;11357;49.990;7.370;2023-08-30T05:33:25;46.53;;;16.57;;
22378;SDS011;11357;49.990;7.370;2023-08-30T05:35:50;49.20;;;22.77;;
22378;SDS011;11357;49.990;7.370;2023-08-30T05:38:16;56.83;;;18.30;;
22378;SDS011;11357;49.990;7.370;2023-08-30T05:40:42;46.27;;;22.07;;
22378;SDS011;11357;49.990;7.370;2023-08-30T05:43:10;42.77;;;22.20;;
22378;SDS011;11357;49.990;7.370;2023-08-30T05:45:36;71.33;;;23.70;;
22378;SDS011;11357;49.990;7.370;2023-08-30T05:48:02;37.90;;;20.40;;
22378;SDS011;11357;49.990;7.370;2023-08-30T05:50:28;65.43;;;26.47;;
22378;SDS011;11357;49.990;7.370;2023-08-30T05:52:54;78.33;;;26.20;;
22378;SDS011;11357;49.990;7.370;2023-08-30T05:55:19;48.50;;;23.27;;
22378;SDS011;11357;49.990;7.370;2023-08-30T05:57:45;29.27;;;20.07;;
22378;SDS011;11357;49.990;7.370;2023-08-30T06:00:11;36.90;;;23.23;;
22378;SDS011;11357;49.990;7.370;2023-08-30T06:02:38;33.27;;;20.10;;
22378;SDS011;11357;49.990;7.370;2023-08-30T06:05:05;44.17;;;19.13;;
22378;SDS011;11357;49.990;7.370;2023-08-30T06:07:31;57.97;;;21.33;;
22378;SDS011;11357;49.990;7.370;2023-08-30T06:09:57;30.20;;;19.97;;
22378;SDS011;11357;49.990;7.370;2023-08-30T06:12:22;37.43;;;19.60;;
22378;SDS011;11357;49.990;7.370;2023-08-30T06:14:48;60.57;;;18.87;;
22378;SDS011;11357;49.990;7.370;2023-08-30T06:17:17;28.40;;;18.67;;
22378;SDS011;11357;49.990;7.370;2023-08-30T06:19:46;37.80;;;18.47;;
22378;SDS011;11357;49.990;7.370;2023-08-30T06:22:12;30.50;;;18.27;;
22378;SDS011;11357;49.990;7.370;2023-08-30T06:24:38;36.37;;;20.00;;
22378;SDS011;11357;49.990;7.370;2023-08-30T06:27:04;27.67;;;18.27;;
22378;SDS011;11357;49.990;7.370;2023-08-30T06:29:30;35.97;;;17.30;;
22378;SDS011;11357;49.990;7.370;2023-08-30T06:31:56;47.00;;;16.93;;
22378;SDS011;11357;49.990;7.370;2023-08-30T06:34:22;39.60;;;15.73;;
22378;SDS011;11357;49.990;7.370;2023-08-30T06:36:48;46.37;;;15.67;;
22378;SDS011;11357;49.990;7.370;2023-08-30T06:39:13;35.63;;;19.73;;
22378;SDS011;11357;49.990;7.370;2023-08-30T06:41:39;16.63;;;15.00;;
22378;SDS011;11357;49.990;7.370;2023-08-30T06:44:05;19.00;;;16.30;;
22378;SDS011;11357;49.990;7.370;2023-08-30T06:46:30;35.17;;;16.00;;
22378;SDS011;11357;49.990;7.370;2023-08-30T06:48:56;39.37;;;17.20;;
22378;SDS011;11357;49.990;7.370;2023-08-30T06:51:22;17.93;;;15.23;;
22378;SDS011;11357;49.990;7.370;2023-08-30T06:53:48;27.50;;;15.77;;
22378;SDS011;11357;49.990;7.370;2023-08-30T06:56:13;40.87;;;16.47;;
22378;SDS011;11357;49.990;7.370;2023-08-30T06:58:39;46.67;;;17.90;;
22378;SDS011;11357;49.990;7.370;2023-08-30T07:01:04;65.33;;;19.03;;
22378;SDS011;11357;49.990;7.370;2023-08-30T07:03:30;34.00;;;17.30;;
22378;SDS011;11357;49.990;7.370;2023-08-30T07:05:56;38.90;;;19.30;;
22378;SDS011;11357;49.990;7.370;2023-08-30T07:08:22;34.37;;;19.43;;
22378;SDS011;11357;49.990;7.370;2023-08-30T07:10:47;40.77;;;19.30;;
22378;SDS011;11357;49.990;7.370;2023-08-30T07:13:13;53.67;;;22.03;;
22378;SDS011;11357;49.990;7.370;2023-08-30T07:15:39;105.03;;;29.53;;
22378;SDS011;11357;49.990;7.370;2023-08-30T07:18:06;80.37;;;25.63;;
22378;SDS011;11357;49.990;7.370;2023-08-30T07:20:32;53.50;;;24.27;;
22378;SDS011;11357;49.990;7.370;2023-08-30T07:22:58;90.90;;;32.17;;
22378;SDS011;11357;49.990;7.370;2023-08-30T07:25:24;67.80;;;22.07;;
22378;SDS011;11357;49.990;7.370;2023-08-30T07:27:50;67.60;;;23.47;;
22378;SDS011;11357;49.990;7.370;2023-08-30T07:30:16;21.00;;;18.50;;
22378;SDS011;11357;49.990;7.370;2023-08-30T07:32:41;74.97;;;27.57;;
22378;SDS011;11357;49.990;7.370;2023-08-30T07:35:07;63.23;;;19.70;;
22378;SDS011;11357;49.990;7.370;2023-08-30T07:37:34;38.07;;;16.80;;
22378;SDS011;11357;49.990;7.370;2023-08-30T07:40:00;74.90;;;26.70;;
22378;SDS011;11357;49.990;7.370;2023-08-30T07:42:26;74.27;;;24.80;;
22378;SDS011;11357;49.990;7.370;2023-08-30T07:44:51;86.63;;;29.03;;
22378;SDS011;11357;49.990;7.370;2023-08-30T07:47:17;64.87;;;22.80;;
22378;SDS011;11357;49.990;7.370;2023-08-30T07:49:43;76.13;;;22.60;;
22378;SDS011;11357;49.990;7.370;2023-08-30T07:52:08;90.17;;;28.63;;
22378;SDS011;11357;49.990;7.370;2023-08-30T07:54:36;91.73;;;25.37;;
22378;SDS011;11357;49.990;7.370;2023-08-30T07:57:04;64.07;;;18.37;;
22378;SDS011;11357;49.990;7.370;2023-08-30T07:59:32;62.13;;;21.53;;
22378;SDS011;11357;49.990;7.370;2023-08-30T08:02:01;31.83;;;16.00;;
22378;SDS011;11357;49.990;7.370;2023-08-30T08:04:27;24.10;;;14.63;;
22378;SDS011;11357;49.990;7.370;2023-08-30T08:06:52;75.07;;;21.90;;
22378;SDS011;11357;49.990;7.370;2023-08-30T08:09:18;90.40;;;31.07;;
22378;SDS011;11357;49.990;7.370;2023-08-30T08:11:43;73.70;;;18.17;;
22378;SDS011;11357;49.990;7.370;2023-08-30T08:14:10;58.53;;;23.33;;
22378;SDS011;11357;49.990;7.370;2023-08-30T08:16:36;93.27;;;24.10;;
22378;SDS011;11357;49.990;7.370;2023-08-30T08:19:02;82.45;;;25.67;;
22378;SDS011;11357;49.990;7.370;2023-08-30T08:21:28;76.15;;;26.85;;
22378;SDS011;11357;49.990;7.370;2023-08-30T08:23:53;125.60;;;39.72;;
22378;SDS011;11357;49.990;7.370;2023-08-30T08:26:19;106.97;;;26.75;;
22378;SDS011;11357;49.990;7.370;2023-08-30T08:28:45;118.50;;;35.38;;
22378;SDS011;11357;49.990;7.370;2023-08-30T08:31:10;117.22;;;34.30;;
22378;SDS011;11357;49.990;7.370;2023-08-30T08:33:36;102.53;;;33.28;;
22378;SDS011;11357;49.990;7.370;2023-08-30T08:36:01;137.63;;;42.78;;
22378;SDS011;11357;49.990;7.370;2023-08-30T08:38:27;82.70;;;33.90;;
22378;SDS011;11357;49.990;7.370;2023-08-30T08:40:53;146.68;;;36.88;;
22378;SDS011;11357;49.990;7.370;2023-08-30T08:43:34;160.75;;;43.80;;
22378;SDS011;11357;49.990;7.370;2023-08-30T08:46:02;124.05;;;35.83;;
22378;SDS011;11357;49.990;7.370;2023-08-30T08:48:28;247.40;;;73.13;;
22378;SDS011;11357;49.990;7.370;2023-08-30T08:50:56;194.10;;;84.13;;
22378;SDS011;11357;49.990;7.370;2023-08-30T08:53:22;297.67;;;190.75;;
22378;SDS011;11357;49.990;7.370;2023-08-30T08:55:48;320.65;;;104.75;;
22378;SDS011;11357;49.990;7.370;2023-08-30T08:58:14;223.73;;;72.97;;
22378;SDS011;11357;49.990;7.370;2023-08-30T09:00:43;179.77;;;102.63;;
22378;SDS011;11357;49.990;7.370;2023-08-30T09:03:09;204.90;;;76.72;;
22378;SDS011;11357;49.990;7.370;2023-08-30T09:05:39;390.35;;;140.70;;
22378;SDS011;11357;49.990;7.370;2023-08-30T09:08:05;288.38;;;97.28;;
22378;SDS011;11357;49.990;7.370;2023-08-30T09:10:32;211.25;;;60.03;;
22378;SDS011;11357;49.990;7.370;2023-08-30T09:12:58;205.77;;;53.42;;
22378;SDS011;11357;49.990;7.370;2023-08-30T09:15:34;182.57;;;85.35;;
22378;SDS011;11357;49.990;7.370;2023-08-30T09:18:03;172.90;;;50.85;;
22378;SDS011;11357;49.990;7.370;2023-08-30T09:20:29;183.25;;;53.55;;
22378;SDS011;11357;49.990;7.370;2023-08-30T09:22:55;221.90;;;72.75;;
22378;SDS011;11357;49.990;7.370;2023-08-30T09:25:24;204.50;;;53.28;;
22378;SDS011;11357;49.990;7.370;2023-08-30T09:27:51;294.73;;;122.63;;
22378;SDS011;11357;49.990;7.370;2023-08-30T09:30:26;280.52;;;73.47;;
22378;SDS011;11357;49.990;7.370;2023-08-30T09:32:52;243.60;;;90.00;;
22378;SDS011;11357;49.990;7.370;2023-08-30T09:35:17;346.60;;;118.68;;
22378;SDS011;11357;49.990;7.370;2023-08-30T09:37:46;167.23;;;77.72;;
22378;SDS011;11357;49.990;7.370;2023-08-30T09:40:12;303.95;;;123.43;;
22378;SDS011;11357;49.990;7.370;2023-08-30T09:42:43;536.72;;;194.07;;
22378;SDS011;11357;49.990;7.370;2023-08-30T09:45:24;869.00;;;361.02;;
22378;SDS011;11357;49.990;7.370;2023-08-30T09:47:50;465.50;;;103.22;;
22378;SDS011;11357;49.990;7.370;2023-08-30T09:50:20;1999.90;;;863.67;;
22378;SDS011;11357;49.990;7.370;2023-08-30T09:52:47;1932.22;;;797.25;;
22378;SDS011;11357;49.990;7.370;2023-08-30T09:55:17;1794.63;;;317.77;;
22378;SDS011;11357;49.990;7.370;2023-08-30T09:57:44;1999.90;;;999.90;;
22378;SDS011;11357;49.990;7.370;2023-08-30T10:00:10;1999.90;;;999.90;;
22378;SDS011;11357;49.990;7.370;2023-08-30T10:02:43;1999.90;;;999.90;;
22378;SDS011;11357;49.990;7.370;2023-08-30T10:05:12;1999.90;;;999.90;;
22378;SDS011;11357;49.990;7.370;2023-08-30T10:07:38;1999.90;;;999.90;;
22378;SDS011;11357;49.990;7.370;2023-08-30T10:10:04;1999.90;;;999.90;;
22378;SDS011;11357;49.990;7.370;2023-08-30T10:12:33;1999.90;;;999.90;;
22378;SDS011;11357;49.990;7.370;2023-08-30T10:14:59;1999.90;;;999.90;;
22378;SDS011;11357;49.990;7.370;2023-08-30T10:17:31;1999.90;;;999.90;;
22378;SDS011;11357;49.990;7.370;2023-08-30T10:19:58;1999.90;;;999.90;;
22378;SDS011;11357;49.990;7.370;2023-08-30T10:22:26;1016.90;;;256.25;;
22378;SDS011;11357;49.990;7.370;2023-08-30T10:24:54;1999.90;;;999.90;;
22378;SDS011;11357;49.990;7.370;2023-08-30T10:27:27;1999.90;;;999.90;;
22378;SDS011;11357;49.990;7.370;2023-08-30T10:29:55;1999.90;;;679.58;;
22378;SDS011;11357;49.990;7.370;2023-08-30T10:32:22;1999.90;;;999.90;;
22378;SDS011;11357;49.990;7.370;2023-08-30T10:34:48;1227.70;;;336.77;;
22378;SDS011;11357;49.990;7.370;2023-08-30T10:37:15;1999.90;;;999.90;;
22378;SDS011;11357;49.990;7.370;2023-08-30T10:39:41;1999.90;;;999.90;;
22378;SDS011;11357;49.990;7.370;2023-08-30T10:42:14;1999.90;;;999.90;;
22378;SDS011;11357;49.990;7.370;2023-08-30T10:44:47;1999.90;;;999.90;;
22378;SDS011;11357;49.990;7.370;2023-08-30T10:47:30;1999.90;;;999.90;;
22378;SDS011;11357;49.990;7.370;2023-08-30T10:50:04;1999.90;;;999.90;;
22378;SDS011;11357;49.990;7.370;2023-08-30T10:52:31;1999.90;;;999.90;;
22378;SDS011;11357;49.990;7.370;2023-08-30T10:55:31;1999.90;;;999.90;;
22378;SDS011;11357;49.990;7.370;2023-08-30T10:58:02;1999.90;;;999.90;;
22378;SDS011;11357;49.990;7.370;2023-08-30T11:00:29;1999.90;;;999.90;;
22378;SDS011;11357;49.990;7.370;2023-08-30T11:02:56;1999.90;;;999.90;;
22378;SDS011;11357;49.990;7.370;2023-08-30T11:05:25;1999.90;;;999.90;;
22378;SDS011;11357;49.990;7.370;2023-08-30T11:07:53;1999.90;;;999.90;;
22378;SDS011;11357;49.990;7.370;2023-08-30T11:10:19;1999.90;;;999.90;;
22378;SDS011;11357;49.990;7.370;2023-08-30T11:12:46;1999.90;;;999.90;;
22378;SDS011;11357;49.990;7.370;2023-08-30T11:15:14;1999.90;;;999.90;;
22378;SDS011;11357;49.990;7.370;2023-08-30T11:17:40;1999.90;;;999.90;;
22378;SDS011;11357;49.990;7.370;2023-08-30T11:20:11;1999.90;;;999.90;;
22378;SDS011;11357;49.990;7.370;2023-08-30T11:22:42;1999.90;;;999.90;;
22378;SDS011;11357;49.990;7.370;2023-08-30T11:25:09;1999.90;;;999.90;;
22378;SDS011;11357;49.990;7.370;2023-08-30T11:27:36;1999.90;;;999.90;;
22378;SDS011;11357;49.990;7.370;2023-08-30T11:30:03;1999.90;;;999.90;;
22378;SDS011;11357;49.990;7.370;2023-08-30T11:32:37;1999.90;;;999.90;;
22378;SDS011;11357;49.990;7.370;2023-08-30T11:35:04;1999.90;;;999.90;;
22378;SDS011;11357;49.990;7.370;2023-08-30T11:37:30;1999.90;;;999.90;;
22378;SDS011;11357;49.990;7.370;2023-08-30T11:39:57;1999.90;;;999.90;;
22378;SDS011;11357;49.990;7.370;2023-08-30T11:42:23;1999.90;;;999.90;;
22378;SDS011;11357;49.990;7.370;2023-08-30T11:44:50;1999.90;;;999.90;;
22378;SDS011;11357;49.990;7.370;2023-08-30T11:47:18;1999.90;;;999.90;;
22378;SDS011;11357;49.990;7.370;2023-08-30T11:49:46;1999.90;;;999.90;;
22378;SDS011;11357;49.990;7.370;2023-08-30T11:52:13;1999.90;;;999.90;;
22378;SDS011;11357;49.990;7.370;2023-08-30T11:54:40;1999.90;;;999.90;;
22378;SDS011;11357;49.990;7.370;2023-08-30T11:57:06;1999.90;;;999.90;;
22378;SDS011;11357;49.990;7.370;2023-08-30T11:59:34;1999.90;;;999.90;;
22378;SDS011;11357;49.990;7.370;2023-08-30T12:02:01;1999.90;;;999.90;;
22378;SDS011;11357;49.990;7.370;2023-08-30T12:04:30;1999.90;;;594.00;;
22378;SDS011;11357;49.990;7.370;2023-08-30T12:06:56;1999.90;;;999.90;;
22378;SDS011;11357;49.990;7.370;2023-08-30T12:09:22;1999.90;;;999.90;;
22378;SDS011;11357;49.990;7.370;2023-08-30T12:11:50;1999.90;;;999.90;;
22378;SDS011;11357;49.990;7.370;2023-08-30T12:14:16;1999.90;;;999.90;;
22378;SDS011;11357;49.990;7.370;2023-08-30T12:16:42;1999.90;;;999.90;;
22378;SDS011;11357;49.990;7.370;2023-08-30T12:19:10;1999.90;;;999.90;;
22378;SDS011;11357;49.990;7.370;2023-08-30T12:21:41;1999.90;;;999.90;;
22378;SDS011;11357;49.990;7.370;2023-08-30T12:24:12;1999.90;;;999.90;;
22378;SDS011;11357;49.990;7.370;2023-08-30T12:26:37;1999.90;;;999.90;;
22378;SDS011;11357;49.990;7.370;2023-08-30T12:29:03;1999.90;;;999.90;;
22378;SDS011;11357;49.990;7.370;2023-08-30T12:31:31;1999.90;;;999.90;;
22378;SDS011;11357;49.990;7.370;2023-08-30T12:33:57;1999.90;;;999.90;;
22378;SDS011;11357;49.990;7.370;2023-08-30T12:36:23;1999.90;;;999.90;;
22378;SDS011;11357;49.990;7.370;2023-08-30T12:38:49;1999.90;;;999.90;;
22378;SDS011;11357;49.990;7.370;2023-08-30T12:41:15;1999.90;;;999.90;;
22378;SDS011;11357;49.990;7.370;2023-08-30T12:43:41;1999.90;;;999.90;;
22378;SDS011;11357;49.990;7.370;2023-08-30T12:46:07;1999.90;;;999.90;;
22378;SDS011;11357;49.990;7.370;2023-08-30T12:48:32;1999.90;;;999.90;;
22378;SDS011;11357;49.990;7.370;2023-08-30T12:50:58;1999.90;;;999.90;;
22378;SDS011;11357;49.990;7.370;2023-08-30T12:53:23;1999.90;;;999.90;;
22378;SDS011;11357;49.990;7.370;2023-08-30T12:55:49;1999.90;;;999.90;;
22378;SDS011;11357;49.990;7.370;2023-08-30T12:58:15;1999.90;;;999.90;;
22378;SDS011;11357;49.990;7.370;2023-08-30T13:00:40;1999.90;;;999.90;;
22378;SDS011;11357;49.990;7.370;2023-08-30T13:03:06;1999.90;;;999.90;;
22378;SDS011;11357;49.990;7.370;2023-08-30T13:05:32;1999.90;;;999.90;;
22378;SDS011;11357;49.990;7.370;2023-08-30T13:07:58;1999.90;;;999.90;;
22378;SDS011;11357;49.990;7.370;2023-08-30T13:10:25;1999.90;;;999.90;;
22378;SDS011;11357;49.990;7.370;2023-08-30T13:12:51;1999.90;;;999.90;;
22378;SDS011;11357;49.990;7.370;2023-08-30T13:15:16;1999.90;;;999.90;;
22378;SDS011;11357;49.990;7.370;2023-08-30T13:17:42;1999.90;;;999.90;;
22378;SDS011;11357;49.990;7.370;2023-08-30T13:20:08;1999.90;;;999.90;;
22378;SDS011;11357;49.990;7.370;2023-08-30T13:22:34;1999.90;;;999.90;;
22378;SDS011;11357;49.990;7.370;2023-08-30T13:25:00;1999.90;;;999.90;;
22378;SDS011;11357;49.990;7.370;2023-08-30T13:27:26;1999.90;;;999.90;;
22378;SDS011;11357;49.990;7.370;2023-08-30T13:29:51;1999.90;;;999.90;;
22378;SDS011;11357;49.990;7.370;2023-08-30T13:32:17;1999.90;;;999.90;;
22378;SDS011;11357;49.990;7.370;2023-08-30T13:34:42;1999.90;;;999.90;;
22378;SDS011;11357;49.990;7.370;2023-08-30T13:37:12;1999.90;;;999.90;;
22378;SDS011;11357;49.990;7.370;2023-08-30T13:39:41;1999.90;;;999.90;;
22378;SDS011;11357;49.990;7.370;2023-08-30T13:42:06;1999.90;;;999.90;;
22378;SDS011;11357;49.990;7.370;2023-08-30T13:44:32;1999.90;;;999.90;;
22378;SDS011;11357;49.990;7.370;2023-08-30T13:47:01;1999.90;;;999.90;;
22378;SDS011;11357;49.990;7.370;2023-08-30T13:49:26;1999.90;;;999.90;;
22378;SDS011;11357;49.990;7.370;2023-08-30T13:51:52;1999.90;;;999.90;;
22378;SDS011;11357;49.990;7.370;2023-08-30T13:54:18;1999.90;;;999.90;;
22378;SDS011;11357;49.990;7.370;2023-08-30T13:56:44;1999.90;;;999.90;;
22378;SDS011;11357;49.990;7.370;2023-08-30T13:59:10;1999.90;;;999.90;;
22378;SDS011;11357;49.990;7.370;2023-08-30T14:01:36;1999.90;;;999.90;;
22378;SDS011;11357;49.990;7.370;2023-08-30T14:04:01;1999.90;;;999.90;;
22378;SDS011;11357;49.990;7.370;2023-08-30T14:06:29;1999.90;;;999.90;;
22378;SDS011;11357;49.990;7.370;2023-08-30T14:08:55;1999.90;;;999.90;;
22378;SDS011;11357;49.990;7.370;2023-08-30T14:11:21;1999.90;;;999.90;;
22378;SDS011;11357;49.990;7.370;2023-08-30T14:13:47;1999.90;;;999.90;;
22378;SDS011;11357;49.990;7.370;2023-08-30T14:16:13;1999.90;;;999.90;;
22378;SDS011;11357;49.990;7.370;2023-08-30T14:18:39;1999.90;;;999.90;;